Airfield :
LOGIN :

Register | Disclaimer

   EN    FR    IT 

 










Legend :    VFR   Marginal VFR   IFR   Intensive IFR   Very Intensive IFR
Visi :
Ceiling :
>= 8 km
>= 3000ft
5 to 8 km
1000 to 3000 ft
1500m to 5 km
500 to 1000 ft
800 to 1500m
200 to 500 ft
< 800m
< 200 ft
Symbols :   Thunderstorms  Fog  Heavy snow  Heavy precipitations  Wind > 20 kt
SIGMETs :     Misc.  Thunderstorms  Icing  Turbulence  Mountain Waves  Volcanic Ashes







- Airport Elevation : 309 ft
- IATA code : FNI
- Download approach charts


LFTW - Nîmes Garons

CURRENT METAR :
  • 190900Z AUTO 13010KT 9999 FEW007/// BKN020/// BKN028/// ///TCU 11/10 Q1017 TEMPO 4000 RA BR BKN007

EXPIRED METARs :
  • 190830Z AUTO 11010KT 9999 FEW004 OVC019 10/09 Q1017 TEMPO 4000 RA BR BKN007
  • 190800Z AUTO 11010KT 6000 DZ FEW004 SCT011 BKN020 10/10 Q1017 TEMPO 4000 RA BKN014 OVC027
  • 190730Z AUTO 10008KT 5000 -RA BR BKN007 BKN016 OVC021 10/09 Q1017 TEMPO RA BKN014 OVC027
  • 190700Z AUTO 10006KT 4900 -RA BR BKN008 BKN020 OVC028 10/09 Q1018 TEMPO RA BKN014 OVC027
  • 190630Z AUTO 10007KT 9999 -RADZ SCT010 BKN019 BKN025 10/08 Q1018 TEMPO 4000 RA BKN014 OVC027

TAF TAF LFTW
Valid from the 19 at 09:00 until the 20 at 09:00 UTC


190800Z 1909/2009 VRB02KT CAVOK
TEMPO 1909/1911 16012KT 4000 RA BR BKN007
No reported NOTAMs for that airfield.



MET'MAP, your aeronautical weather chart ! - Copyright ORBIFLY December 2007 - Disclaimer

ORBIFLY MET'MAP TEAM :

Programming & Development : Alexandra Zaïnal
Concept & Development : Baudouin d'Aumeries
Co-Development & Prog : Marc-Olivier Méhu
Technical & hardware support : Manuel Goepfert

Contact : metmap@orbifly.com




SOURCES & CREDITS :

   NOAA